This ESP01 driven station collects data from a BME280 (air pressure, humidity and temperature) and a MAX44009 (light). It transmits its data over the WIFI at 15 minutes intervals. The weather station is up again (6/4/21) but is running inside under battery power.


Battery voltage = 2.8 V
Last read – 2021-04-13 06:07:38
c-0.195,0.195-0.451,0.293-0.707,0.293s-0.512-0.098-0.707-0.293c-0.391-0.391-0.391-1.023,0-1.414l3.425-3.424 c-3.375-3.059-7.776-4.987-12.634-5.215c0.015,0.067,0.041,0.13,0.041,0.202v4.687c0,0.552-0.447,1-1,1s-1-0.448-1-1V0.25 c0-0.071,0.026-0.134,0.041-0.202C14.39,0.279,9.936,2.256,6.544,5.385l3.576,3.577c0.391,0.391,0.391,1.024,0,1.414 c-0.195,0.195-0.451,0.293-0.707,0.293s-0.512-0.098-0.707-0.293L5.142,6.812c-2.98,3.348-4.858,7.682-5.092,12.459h4.804 c0.552,0,1,0.448,1,1s-0.448,1-1,1H0.05c0.525,10.728,9.362,19.271,20.22,19.271c10.857,0,19.696-8.543,20.22-19.271h-5.178 C34.76,21.271,34.313,20.823,34.313,20.271z M23.084,22.037c-0.559,1.561-2.274,2.372-3.833,1.814 c-1.561-0.557-2.373-2.272-1.815-3.833c0.372-1.041,1.263-1.737,2.277-1.928L25.2,7.202L22.497,19.05 C23.196,19.843,23.464,20.973,23.084,22.037z’fill=#26B999 /> C1.261,38.825,0,41.403,0,44.286c0,5.367,4.351,9.718,9.719,9.718c5.368,0,9.719-4.351,9.719-9.718 c0-2.943-1.312-5.574-3.378-7.355V18.436h-3.914v-2h3.914v-2.808h-4.084v-2h4.084V8.82H11.976z M15.302,44.833 c0,3.083-2.5,5.583-5.583,5.583s-5.583-2.5-5.583-5.583c0-2.279,1.368-4.236,3.326-5.104V24.257C7.462,23.01,8.472,22,9.719,22 s2.257,1.01,2.257,2.257V39.73C13.934,40.597,15.302,42.554,15.302,44.833z’fill=#ed4f4a /> C29.235,17.95,14.618,0,14.618,0z M13.667,37.135c-5.604,0-10.162-4.56-10.162-10.162c0-0.787,0.638-1.426,1.426-1.426 c0.787,0,1.425,0.639,1.425,1.426c0,4.031,3.28,7.312,7.311,7.312c0.787,0,1.425,0.638,1.425,1.425 C15.093,36.497,14.455,37.135,13.667,37.135z’fill=#3C97D3 />
Pressure Temperature Humidity Light Intensity
1031.6 mb 13.4 °C 56.2 % 67.3 lux
Data graphed for last 24 hours
Data graphed for last 28 days
Raw data for the past 24 hours.

Pressure (mb) Temperature (°C) Humidity (%) Light (lux) Date/Time
1026.7 14.1 53.5 146.9 2021-04-12 06:19:34
1026.9 14.1 53.5 342.7 2021-04-12 06:33:56
1027.0 14.3 55.1 342.7 2021-04-12 06:48:22
1027.2 15.0 54.9 489.6 2021-04-12 07:02:52
1027.3 14.8 55.4 587.5 2021-04-12 07:17:15
1027.3 15.1 55.3 685.4 2021-04-12 07:31:40
1027.3 15.5 52.9 734.4 2021-04-12 07:46:06
1027.4 15.7 52.2 783.4 2021-04-12 08:00:34
1027.5 15.9 52.1 783.4 2021-04-12 08:15:01
1027.6 16.3 49.9 783.4 2021-04-12 08:29:26
1027.6 16.4 50.0 881.3 2021-04-12 08:43:53
1027.6 16.6 49.5 881.3 2021-04-12 08:58:18
1027.7 16.8 49.5 881.3 2021-04-12 09:12:45
1027.7 17.1 49.2 881.3 2021-04-12 09:27:10
1027.8 17.3 48.7 881.3 2021-04-12 09:41:37
1027.8 17.7 48.5 881.3 2021-04-12 09:56:03
1027.9 18.0 49.0 979.2 2021-04-12 10:10:29
1027.8 18.3 48.6 1370.9 2021-04-12 10:24:56
1027.9 18.9 47.5 2741.8 2021-04-12 10:39:23
1027.9 19.4 46.2 3525.1 2021-04-12 10:53:50
1027.9 19.0 46.8 1762.6 2021-04-12 11:08:14
1027.9 19.4 46.2 3525.1 2021-04-12 11:22:42
1028.0 19.6 45.9 2350.1 2021-04-12 11:37:09
1028.0 19.7 45.3 3133.4 2021-04-12 11:51:36
1028.2 19.9 44.8 3916.8 2021-04-12 12:06:04
1028.2 19.8 44.6 3525.1 2021-04-12 12:20:28
1028.2 19.7 44.7 3525.1 2021-04-12 12:34:54
1028.2 19.9 45.2 4700.2 2021-04-12 12:49:19
1028.3 20.1 44.6 3525.1 2021-04-12 13:03:46
1028.4 20.2 44.3 5091.8 2021-04-12 13:18:12
1028.4 20.2 44.4 4308.5 2021-04-12 13:32:38
1028.4 19.8 45.4 3525.1 2021-04-12 13:47:02
1028.4 19.6 46.2 3133.4 2021-04-12 14:01:28
1028.4 20.9 42.5 6266.9 2021-04-12 14:15:55
1028.6 20.5 42.8 4700.2 2021-04-12 14:30:20
1028.6 19.9 44.1 2741.8 2021-04-12 14:44:44
1028.6 19.6 44.4 2741.8 2021-04-12 14:59:10
1028.4 20.5 42.1 5875.2 2021-04-12 15:13:38
1028.2 21.7 40.7 6266.9 2021-04-12 15:28:04
1028.3 21.6 41.4 4700.2 2021-04-12 15:42:32
1028.3 20.9 42.1 5091.8 2021-04-12 15:56:58
1028.4 21.1 41.5 5875.2 2021-04-12 16:11:25
1028.5 20.9 41.7 5091.8 2021-04-12 16:25:49
1028.5 20.4 42.5 3133.4 2021-04-12 16:40:09
1028.6 19.7 44.3 3133.4 2021-04-12 16:54:34
1028.7 19.5 45.0 2937.6 2021-04-12 17:08:58
1028.9 19.7 47.9 2741.8 2021-04-12 17:23:25
1028.8 20.1 49.7 3133.4 2021-04-12 17:37:52
1029.0 20.4 48.4 2545.9 2021-04-12 17:52:17
1029.0 20.3 49.0 2545.9 2021-04-12 18:06:42
1029.1 20.0 48.6 1958.4 2021-04-12 18:21:10
1029.2 19.9 48.6 2545.9 2021-04-12 18:35:37
1029.2 19.4 49.7 1273.0 2021-04-12 18:50:00
1029.4 18.9 50.4 1077.1 2021-04-12 19:04:24
1029.4 18.7 50.7 979.2 2021-04-12 19:18:49
1029.7 18.4 51.6 783.4 2021-04-12 19:33:12
1029.8 18.4 50.9 538.6 2021-04-12 19:47:37
1029.9 18.3 51.0 342.7 2021-04-12 20:02:05
1030.0 18.0 51.8 159.1 2021-04-12 20:16:29
1030.1 17.8 52.1 45.9 2021-04-12 20:30:55
1030.3 17.6 51.6 8.4 2021-04-12 20:45:20
1030.3 17.4 52.1 19.9 2021-04-12 20:59:46
1030.4 16.9 53.7 0.0 2021-04-12 21:14:12
1030.5 16.5 55.2 0.0 2021-04-12 21:28:34
1030.6 16.3 55.8 0.0 2021-04-12 21:42:59
1030.6 16.1 56.0 0.0 2021-04-12 21:57:26
1030.6 16.0 56.3 0.0 2021-04-12 22:11:50
1030.7 15.6 57.3 3.1 2021-04-12 22:26:20
1030.7 15.5 59.0 3.1 2021-04-12 22:40:37
1030.8 15.8 59.2 0.0 2021-04-12 22:55:06
1030.8 15.4 58.6 0.0 2021-04-12 23:09:33
1031.0 15.1 59.2 0.0 2021-04-12 23:23:56
1031.1 15.1 59.2 0.0 2021-04-12 23:38:20
1031.1 14.8 59.8 0.0 2021-04-12 23:52:44
1031.3 14.5 60.0 0.0 2021-04-13 00:07:10
1031.4 14.5 59.7 0.0 2021-04-13 00:21:35
1031.4 14.5 59.0 0.0 2021-04-13 00:35:57
1031.5 14.5 58.8 0.0 2021-04-13 00:50:23
1031.5 14.3 58.9 0.0 2021-04-13 01:04:49
1031.5 14.3 58.3 0.0 2021-04-13 01:19:14
1031.6 14.2 58.5 0.0 2021-04-13 01:33:38
1031.4 14.2 58.2 0.0 2021-04-13 01:48:04
1031.4 14.2 58.0 0.0 2021-04-13 02:02:28
1031.4 14.1 57.6 0.0 2021-04-13 02:16:51
1031.5 14.1 57.6 0.0 2021-04-13 02:31:17
1031.4 13.9 57.7 0.0 2021-04-13 02:45:41
1031.5 13.9 57.6 0.0 2021-04-13 03:00:08
1031.4 14.0 57.0 0.0 2021-04-13 03:14:32
1031.5 13.8 57.3 0.0 2021-04-13 03:28:55
1031.4 13.8 57.3 0.0 2021-04-13 03:43:20
1031.4 13.7 57.1 0.0 2021-04-13 03:57:48
1031.5 13.7 57.0 0.0 2021-04-13 04:12:13
1031.5 13.8 56.5 0.0 2021-04-13 04:26:37
1031.5 13.7 56.4 0.0 2021-04-13 04:41:02
1031.5 13.6 56.6 0.0 2021-04-13 04:55:28
1031.4 13.5 56.8 0.0 2021-04-13 05:09:55
1031.4 13.6 56.5 0.0 2021-04-13 05:24:21
1031.5 13.5 56.6 1.5 2021-04-13 05:38:47
1031.6 13.4 56.4 13.8 2021-04-13 05:53:13
1031.6 13.4 56.2 67.3 2021-04-13 06:07:38